sensor_id;sensor_type;location;lat;lon;timestamp;P1;durP1;ratioP1;P2;durP2;ratioP2
40533;SDS011;26233;51.894;10.192;2023-11-19T00:00:31;0.53;;;0.53;;
40533;SDS011;26233;51.894;10.192;2023-11-19T00:02:58;0.70;;;0.70;;
40533;SDS011;26233;51.894;10.192;2023-11-19T00:05:26;0.70;;;0.70;;
40533;SDS011;26233;51.894;10.192;2023-11-19T00:07:54;0.60;;;0.60;;
40533;SDS011;26233;51.894;10.192;2023-11-19T00:10:21;0.60;;;0.60;;
40533;SDS011;26233;51.894;10.192;2023-11-19T00:12:48;0.60;;;0.60;;
40533;SDS011;26233;51.894;10.192;2023-11-19T00:15:16;0.63;;;0.63;;
40533;SDS011;26233;51.894;10.192;2023-11-19T00:17:46;0.60;;;0.60;;
40533;SDS011;26233;51.894;10.192;2023-11-19T00:20:14;0.70;;;0.70;;
40533;SDS011;26233;51.894;10.192;2023-11-19T00:22:43;0.67;;;0.67;;
40533;SDS011;26233;51.894;10.192;2023-11-19T00:25:13;1.60;;;0.80;;
40533;SDS011;26233;51.894;10.192;2023-11-19T00:27:40;0.70;;;0.70;;
40533;SDS011;26233;51.894;10.192;2023-11-19T00:30:10;0.60;;;0.60;;
40533;SDS011;26233;51.894;10.192;2023-11-19T00:32:38;0.60;;;0.60;;
40533;SDS011;26233;51.894;10.192;2023-11-19T00:35:07;0.60;;;0.60;;
40533;SDS011;26233;51.894;10.192;2023-11-19T00:37:35;0.80;;;0.80;;
40533;SDS011;26233;51.894;10.192;2023-11-19T00:40:02;0.80;;;0.80;;
40533;SDS011;26233;51.894;10.192;2023-11-19T00:42:30;0.60;;;0.60;;
40533;SDS011;26233;51.894;10.192;2023-11-19T00:44:57;0.60;;;0.60;;
40533;SDS011;26233;51.894;10.192;2023-11-19T00:47:26;0.60;;;0.60;;
40533;SDS011;26233;51.894;10.192;2023-11-19T00:49:53;0.60;;;0.60;;
40533;SDS011;26233;51.894;10.192;2023-11-19T00:52:21;0.70;;;0.70;;
40533;SDS011;26233;51.894;10.192;2023-11-19T00:54:48;0.70;;;0.70;;
40533;SDS011;26233;51.894;10.192;2023-11-19T00:57:16;0.70;;;0.70;;
40533;SDS011;26233;51.894;10.192;2023-11-19T00:59:43;0.83;;;0.83;;
40533;SDS011;26233;51.894;10.192;2023-11-19T01:02:10;0.60;;;0.60;;
40533;SDS011;26233;51.894;10.192;2023-11-19T01:04:39;0.60;;;0.60;;
40533;SDS011;26233;51.894;10.192;2023-11-19T01:07:06;0.60;;;0.60;;
40533;SDS011;26233;51.894;10.192;2023-11-19T01:09:38;0.70;;;0.70;;
40533;SDS011;26233;51.894;10.192;2023-11-19T01:12:08;0.73;;;0.73;;
40533;SDS011;26233;51.894;10.192;2023-11-19T01:14:35;0.70;;;0.70;;
40533;SDS011;26233;51.894;10.192;2023-11-19T01:17:02;0.60;;;0.60;;
40533;SDS011;26233;51.894;10.192;2023-11-19T01:19:30;0.70;;;0.70;;
40533;SDS011;26233;51.894;10.192;2023-11-19T01:21:57;0.87;;;0.87;;
40533;SDS011;26233;51.894;10.192;2023-11-19T01:24:24;0.70;;;0.70;;
40533;SDS011;26233;51.894;10.192;2023-11-19T01:26:55;0.60;;;0.60;;
40533;SDS011;26233;51.894;10.192;2023-11-19T01:29:22;0.60;;;0.60;;
40533;SDS011;26233;51.894;10.192;2023-11-19T01:31:49;0.60;;;0.60;;
40533;SDS011;26233;51.894;10.192;2023-11-19T01:34:18;0.60;;;0.60;;
40533;SDS011;26233;51.894;10.192;2023-11-19T01:36:46;0.60;;;0.60;;
40533;SDS011;26233;51.894;10.192;2023-11-19T01:39:14;0.70;;;0.70;;
40533;SDS011;26233;51.894;10.192;2023-11-19T01:41:42;0.50;;;0.50;;
40533;SDS011;26233;51.894;10.192;2023-11-19T01:44:10;0.53;;;0.53;;
40533;SDS011;26233;51.894;10.192;2023-11-19T01:46:38;0.70;;;0.70;;
40533;SDS011;26233;51.894;10.192;2023-11-19T01:49:08;0.50;;;0.50;;
40533;SDS011;26233;51.894;10.192;2023-11-19T01:51:36;0.70;;;0.70;;
40533;SDS011;26233;51.894;10.192;2023-11-19T01:54:04;0.57;;;0.57;;
40533;SDS011;26233;51.894;10.192;2023-11-19T01:56:31;0.60;;;0.60;;
40533;SDS011;26233;51.894;10.192;2023-11-19T01:58:59;0.67;;;0.67;;
40533;SDS011;26233;51.894;10.192;2023-11-19T02:01:28;0.60;;;0.60;;
40533;SDS011;26233;51.894;10.192;2023-11-19T02:03:57;0.50;;;0.50;;
40533;SDS011;26233;51.894;10.192;2023-11-19T02:06:24;0.57;;;0.57;;
40533;SDS011;26233;51.894;10.192;2023-11-19T02:08:53;0.60;;;0.60;;
40533;SDS011;26233;51.894;10.192;2023-11-19T02:11:20;0.60;;;0.60;;
40533;SDS011;26233;51.894;10.192;2023-11-19T02:13:47;0.60;;;0.60;;
40533;SDS011;26233;51.894;10.192;2023-11-19T02:16:15;0.60;;;0.60;;
40533;SDS011;26233;51.894;10.192;2023-11-19T02:18:44;0.57;;;0.57;;
40533;SDS011;26233;51.894;10.192;2023-11-19T02:21:11;0.50;;;0.50;;
40533;SDS011;26233;51.894;10.192;2023-11-19T02:23:40;0.50;;;0.50;;
40533;SDS011;26233;51.894;10.192;2023-11-19T02:26:12;0.50;;;0.50;;
40533;SDS011;26233;51.894;10.192;2023-11-19T02:28:46;0.50;;;0.50;;
40533;SDS011;26233;51.894;10.192;2023-11-19T02:31:13;0.50;;;0.50;;
40533;SDS011;26233;51.894;10.192;2023-11-19T02:33:40;0.50;;;0.50;;
40533;SDS011;26233;51.894;10.192;2023-11-19T02:36:08;0.50;;;0.50;;
40533;SDS011;26233;51.894;10.192;2023-11-19T02:38:36;0.40;;;0.40;;
40533;SDS011;26233;51.894;10.192;2023-11-19T02:41:03;0.50;;;0.50;;
40533;SDS011;26233;51.894;10.192;2023-11-19T02:43:32;0.50;;;0.50;;
40533;SDS011;26233;51.894;10.192;2023-11-19T02:46:01;0.50;;;0.50;;
40533;SDS011;26233;51.894;10.192;2023-11-19T02:48:31;0.40;;;0.40;;
40533;SDS011;26233;51.894;10.192;2023-11-19T02:51:00;0.50;;;0.50;;
40533;SDS011;26233;51.894;10.192;2023-11-19T02:53:28;0.50;;;0.50;;
40533;SDS011;26233;51.894;10.192;2023-11-19T02:55:55;0.50;;;0.50;;
40533;SDS011;26233;51.894;10.192;2023-11-19T02:58:27;0.50;;;0.50;;
40533;SDS011;26233;51.894;10.192;2023-11-19T03:00:54;0.50;;;0.50;;
40533;SDS011;26233;51.894;10.192;2023-11-19T03:03:25;0.60;;;0.60;;
40533;SDS011;26233;51.894;10.192;2023-11-19T03:06:03;1.08;;;0.40;;
40533;SDS011;26233;51.894;10.192;2023-11-19T03:08:31;0.57;;;0.57;;
40533;SDS011;26233;51.894;10.192;2023-11-19T03:10:58;0.60;;;0.60;;
40533;SDS011;26233;51.894;10.192;2023-11-19T03:13:25;0.43;;;0.43;;
40533;SDS011;26233;51.894;10.192;2023-11-19T03:15:53;0.40;;;0.40;;
40533;SDS011;26233;51.894;10.192;2023-11-19T03:18:20;0.43;;;0.43;;
40533;SDS011;26233;51.894;10.192;2023-11-19T03:20:48;0.50;;;0.50;;
40533;SDS011;26233;51.894;10.192;2023-11-19T03:23:15;0.60;;;0.60;;
40533;SDS011;26233;51.894;10.192;2023-11-19T03:25:42;0.63;;;0.63;;
40533;SDS011;26233;51.894;10.192;2023-11-19T03:28:10;0.50;;;0.50;;
40533;SDS011;26233;51.894;10.192;2023-11-19T03:30:37;0.50;;;0.50;;
40533;SDS011;26233;51.894;10.192;2023-11-19T03:33:04;0.50;;;0.50;;
40533;SDS011;26233;51.894;10.192;2023-11-19T03:35:31;0.50;;;0.50;;
40533;SDS011;26233;51.894;10.192;2023-11-19T03:38:00;0.68;;;0.68;;
40533;SDS011;26233;51.894;10.192;2023-11-19T03:40:27;0.60;;;0.60;;
40533;SDS011;26233;51.894;10.192;2023-11-19T03:42:55;0.50;;;0.50;;
40533;SDS011;26233;51.894;10.192;2023-11-19T03:45:23;0.52;;;0.52;;
40533;SDS011;26233;51.894;10.192;2023-11-19T03:47:50;0.40;;;0.40;;
40533;SDS011;26233;51.894;10.192;2023-11-19T03:50:17;0.50;;;0.50;;
40533;SDS011;26233;51.894;10.192;2023-11-19T03:52:46;0.50;;;0.50;;
40533;SDS011;26233;51.894;10.192;2023-11-19T03:55:14;0.70;;;0.70;;
40533;SDS011;26233;51.894;10.192;2023-11-19T03:57:41;0.60;;;0.60;;
40533;SDS011;26233;51.894;10.192;2023-11-19T04:00:09;0.55;;;0.55;;
40533;SDS011;26233;51.894;10.192;2023-11-19T04:02:39;0.60;;;0.60;;
40533;SDS011;26233;51.894;10.192;2023-11-19T04:05:06;0.70;;;0.70;;
40533;SDS011;26233;51.894;10.192;2023-11-19T04:07:34;0.70;;;0.70;;
40533;SDS011;26233;51.894;10.192;2023-11-19T04:10:02;0.70;;;0.70;;
40533;SDS011;26233;51.894;10.192;2023-11-19T04:12:31;0.75;;;0.75;;
40533;SDS011;26233;51.894;10.192;2023-11-19T04:14:58;1.35;;;0.80;;
40533;SDS011;26233;51.894;10.192;2023-11-19T04:17:25;0.70;;;0.70;;
40533;SDS011;26233;51.894;10.192;2023-11-19T04:19:53;0.70;;;0.70;;
40533;SDS011;26233;51.894;10.192;2023-11-19T04:22:20;0.80;;;0.80;;
40533;SDS011;26233;51.894;10.192;2023-11-19T04:24:47;0.80;;;0.80;;
40533;SDS011;26233;51.894;10.192;2023-11-19T04:27:14;0.73;;;0.73;;
40533;SDS011;26233;51.894;10.192;2023-11-19T04:29:43;0.82;;;0.82;;
40533;SDS011;26233;51.894;10.192;2023-11-19T04:32:11;0.70;;;0.70;;
40533;SDS011;26233;51.894;10.192;2023-11-19T04:34:37;0.90;;;0.90;;
40533;SDS011;26233;51.894;10.192;2023-11-19T04:37:04;0.88;;;0.88;;
40533;SDS011;26233;51.894;10.192;2023-11-19T04:39:31;0.85;;;0.85;;
40533;SDS011;26233;51.894;10.192;2023-11-19T04:41:58;1.00;;;1.00;;
40533;SDS011;26233;51.894;10.192;2023-11-19T04:44:25;0.90;;;0.90;;
40533;SDS011;26233;51.894;10.192;2023-11-19T04:46:56;0.70;;;0.70;;
40533;SDS011;26233;51.894;10.192;2023-11-19T04:49:23;0.80;;;0.80;;
40533;SDS011;26233;51.894;10.192;2023-11-19T04:51:52;0.68;;;0.68;;
40533;SDS011;26233;51.894;10.192;2023-11-19T04:54:19;0.70;;;0.70;;
40533;SDS011;26233;51.894;10.192;2023-11-19T04:56:46;0.70;;;0.70;;
40533;SDS011;26233;51.894;10.192;2023-11-19T04:59:13;0.70;;;0.70;;
40533;SDS011;26233;51.894;10.192;2023-11-19T05:01:41;0.80;;;0.68;;
40533;SDS011;26233;51.894;10.192;2023-11-19T05:04:13;0.80;;;0.80;;
40533;SDS011;26233;51.894;10.192;2023-11-19T05:06:40;0.80;;;0.80;;
40533;SDS011;26233;51.894;10.192;2023-11-19T05:09:07;0.95;;;0.95;;
40533;SDS011;26233;51.894;10.192;2023-11-19T05:11:37;1.10;;;1.10;;
40533;SDS011;26233;51.894;10.192;2023-11-19T05:14:05;0.80;;;0.80;;
40533;SDS011;26233;51.894;10.192;2023-11-19T05:16:32;0.95;;;0.90;;
40533;SDS011;26233;51.894;10.192;2023-11-19T05:19:00;0.98;;;0.88;;
40533;SDS011;26233;51.894;10.192;2023-11-19T05:21:28;0.90;;;0.90;;
40533;SDS011;26233;51.894;10.192;2023-11-19T05:23:55;0.90;;;0.90;;
40533;SDS011;26233;51.894;10.192;2023-11-19T05:26:23;1.00;;;1.00;;
40533;SDS011;26233;51.894;10.192;2023-11-19T05:28:50;0.88;;;0.88;;
40533;SDS011;26233;51.894;10.192;2023-11-19T05:31:17;0.80;;;0.80;;
40533;SDS011;26233;51.894;10.192;2023-11-19T05:33:44;0.90;;;0.90;;
40533;SDS011;26233;51.894;10.192;2023-11-19T05:36:12;1.30;;;1.10;;
40533;SDS011;26233;51.894;10.192;2023-11-19T05:38:40;1.25;;;1.00;;
40533;SDS011;26233;51.894;10.192;2023-11-19T05:41:07;1.00;;;1.00;;
40533;SDS011;26233;51.894;10.192;2023-11-19T05:43:34;1.00;;;0.95;;
40533;SDS011;26233;51.894;10.192;2023-11-19T05:46:02;1.30;;;0.98;;
40533;SDS011;26233;51.894;10.192;2023-11-19T05:48:30;0.90;;;0.90;;
40533;SDS011;26233;51.894;10.192;2023-11-19T05:50:57;1.15;;;0.95;;
40533;SDS011;26233;51.894;10.192;2023-11-19T05:53:25;1.15;;;0.98;;
40533;SDS011;26233;51.894;10.192;2023-11-19T05:55:53;1.30;;;1.00;;
40533;SDS011;26233;51.894;10.192;2023-11-19T05:58:22;1.20;;;1.10;;
40533;SDS011;26233;51.894;10.192;2023-11-19T06:00:53;1.30;;;1.10;;
40533;SDS011;26233;51.894;10.192;2023-11-19T06:03:20;1.25;;;1.10;;
40533;SDS011;26233;51.894;10.192;2023-11-19T06:05:47;1.10;;;1.00;;
40533;SDS011;26233;51.894;10.192;2023-11-19T06:08:14;1.77;;;1.30;;
40533;SDS011;26233;51.894;10.192;2023-11-19T06:10:41;1.05;;;1.02;;
40533;SDS011;26233;51.894;10.192;2023-11-19T06:13:12;1.00;;;1.00;;
40533;SDS011;26233;51.894;10.192;2023-11-19T06:15:40;1.48;;;1.10;;
40533;SDS011;26233;51.894;10.192;2023-11-19T06:18:07;1.40;;;1.05;;
40533;SDS011;26233;51.894;10.192;2023-11-19T06:20:36;1.30;;;1.20;;
40533;SDS011;26233;51.894;10.192;2023-11-19T06:23:04;1.75;;;0.93;;
40533;SDS011;26233;51.894;10.192;2023-11-19T06:25:30;1.40;;;1.10;;
40533;SDS011;26233;51.894;10.192;2023-11-19T06:27:57;1.27;;;1.05;;
40533;SDS011;26233;51.894;10.192;2023-11-19T06:30:26;1.40;;;1.30;;
40533;SDS011;26233;51.894;10.192;2023-11-19T06:32:55;1.60;;;1.15;;
40533;SDS011;26233;51.894;10.192;2023-11-19T06:35:22;1.40;;;1.30;;
40533;SDS011;26233;51.894;10.192;2023-11-19T06:37:49;1.35;;;1.25;;
40533;SDS011;26233;51.894;10.192;2023-11-19T06:40:16;1.50;;;1.40;;
40533;SDS011;26233;51.894;10.192;2023-11-19T06:42:43;1.27;;;1.17;;
40533;SDS011;26233;51.894;10.192;2023-11-19T06:45:10;2.30;;;1.55;;
40533;SDS011;26233;51.894;10.192;2023-11-19T06:47:39;2.20;;;1.27;;
40533;SDS011;26233;51.894;10.192;2023-11-19T06:50:06;1.58;;;1.30;;
40533;SDS011;26233;51.894;10.192;2023-11-19T06:52:34;2.33;;;1.42;;
40533;SDS011;26233;51.894;10.192;2023-11-19T06:55:03;1.25;;;1.15;;
40533;SDS011;26233;51.894;10.192;2023-11-19T06:57:31;1.23;;;1.13;;
40533;SDS011;26233;51.894;10.192;2023-11-19T06:59:58;1.33;;;1.23;;
40533;SDS011;26233;51.894;10.192;2023-11-19T07:02:26;1.73;;;1.25;;
40533;SDS011;26233;51.894;10.192;2023-11-19T07:04:54;3.63;;;1.60;;
40533;SDS011;26233;51.894;10.192;2023-11-19T07:07:21;1.85;;;1.30;;
40533;SDS011;26233;51.894;10.192;2023-11-19T07:09:48;2.55;;;1.60;;
40533;SDS011;26233;51.894;10.192;2023-11-19T07:12:15;2.00;;;1.50;;
40533;SDS011;26233;51.894;10.192;2023-11-19T07:14:42;2.30;;;1.60;;
40533;SDS011;26233;51.894;10.192;2023-11-19T07:17:09;3.28;;;1.90;;
40533;SDS011;26233;51.894;10.192;2023-11-19T07:19:36;2.05;;;1.60;;
40533;SDS011;26233;51.894;10.192;2023-11-19T07:22:04;2.15;;;1.60;;
40533;SDS011;26233;51.894;10.192;2023-11-19T07:24:32;1.85;;;1.58;;
40533;SDS011;26233;51.894;10.192;2023-11-19T07:26:59;2.65;;;1.63;;
40533;SDS011;26233;51.894;10.192;2023-11-19T07:29:29;2.25;;;1.52;;
40533;SDS011;26233;51.894;10.192;2023-11-19T07:31:56;2.35;;;1.70;;
40533;SDS011;26233;51.894;10.192;2023-11-19T07:34:23;2.50;;;1.55;;
40533;SDS011;26233;51.894;10.192;2023-11-19T07:36:51;2.83;;;1.70;;
40533;SDS011;26233;51.894;10.192;2023-11-19T07:39:19;4.60;;;1.60;;
40533;SDS011;26233;51.894;10.192;2023-11-19T07:41:46;2.65;;;1.58;;
40533;SDS011;26233;51.894;10.192;2023-11-19T07:44:13;5.60;;;1.70;;
40533;SDS011;26233;51.894;10.192;2023-11-19T07:46:40;2.90;;;1.42;;
40533;SDS011;26233;51.894;10.192;2023-11-19T07:49:09;4.30;;;2.00;;
40533;SDS011;26233;51.894;10.192;2023-11-19T07:51:36;3.85;;;1.85;;
40533;SDS011;26233;51.894;10.192;2023-11-19T07:54:04;5.38;;;1.80;;
40533;SDS011;26233;51.894;10.192;2023-11-19T07:56:32;3.13;;;1.73;;
40533;SDS011;26233;51.894;10.192;2023-11-19T07:59:00;2.50;;;1.75;;
40533;SDS011;26233;51.894;10.192;2023-11-19T08:01:27;4.63;;;2.17;;
40533;SDS011;26233;51.894;10.192;2023-11-19T08:03:54;2.80;;;1.80;;
40533;SDS011;26233;51.894;10.192;2023-11-19T08:06:21;5.22;;;1.80;;
40533;SDS011;26233;51.894;10.192;2023-11-19T08:08:49;5.60;;;2.08;;
40533;SDS011;26233;51.894;10.192;2023-11-19T08:11:16;4.15;;;2.20;;
40533;SDS011;26233;51.894;10.192;2023-11-19T08:13:46;6.18;;;2.35;;
40533;SDS011;26233;51.894;10.192;2023-11-19T08:16:13;4.30;;;2.40;;
40533;SDS011;26233;51.894;10.192;2023-11-19T08:18:41;6.43;;;2.45;;
40533;SDS011;26233;51.894;10.192;2023-11-19T08:21:10;5.50;;;2.58;;
40533;SDS011;26233;51.894;10.192;2023-11-19T08:23:37;3.78;;;2.08;;
40533;SDS011;26233;51.894;10.192;2023-11-19T08:26:04;4.72;;;2.38;;
40533;SDS011;26233;51.894;10.192;2023-11-19T08:28:31;5.93;;;2.20;;
40533;SDS011;26233;51.894;10.192;2023-11-19T08:31:00;5.55;;;2.45;;
40533;SDS011;26233;51.894;10.192;2023-11-19T08:33:29;5.90;;;2.58;;
40533;SDS011;26233;51.894;10.192;2023-11-19T08:35:56;7.13;;;2.53;;
40533;SDS011;26233;51.894;10.192;2023-11-19T08:38:23;6.82;;;2.35;;
40533;SDS011;26233;51.894;10.192;2023-11-19T08:40:50;5.47;;;3.10;;
40533;SDS011;26233;51.894;10.192;2023-11-19T08:43:18;6.40;;;2.70;;
40533;SDS011;26233;51.894;10.192;2023-11-19T08:45:45;10.07;;;3.30;;
40533;SDS011;26233;51.894;10.192;2023-11-19T08:48:13;7.40;;;2.80;;
40533;SDS011;26233;51.894;10.192;2023-11-19T08:50:40;9.25;;;2.85;;
40533;SDS011;26233;51.894;10.192;2023-11-19T08:53:07;5.97;;;2.85;;
40533;SDS011;26233;51.894;10.192;2023-11-19T08:55:34;8.65;;;2.97;;
40533;SDS011;26233;51.894;10.192;2023-11-19T08:58:02;5.82;;;2.90;;
40533;SDS011;26233;51.894;10.192;2023-11-19T09:00:29;5.95;;;2.85;;
40533;SDS011;26233;51.894;10.192;2023-11-19T09:02:57;6.63;;;3.20;;
40533;SDS011;26233;51.894;10.192;2023-11-19T09:05:25;9.23;;;3.67;;
40533;SDS011;26233;51.894;10.192;2023-11-19T09:07:52;6.68;;;3.15;;
40533;SDS011;26233;51.894;10.192;2023-11-19T09:10:19;6.40;;;3.53;;
40533;SDS011;26233;51.894;10.192;2023-11-19T09:12:46;9.02;;;3.97;;
40533;SDS011;26233;51.894;10.192;2023-11-19T09:15:14;9.55;;;4.18;;
40533;SDS011;26233;51.894;10.192;2023-11-19T09:17:41;7.20;;;3.60;;
40533;SDS011;26233;51.894;10.192;2023-11-19T09:20:09;9.38;;;3.53;;
40533;SDS011;26233;51.894;10.192;2023-11-19T09:22:41;8.52;;;4.10;;
40533;SDS011;26233;51.894;10.192;2023-11-19T09:25:08;10.18;;;3.92;;
40533;SDS011;26233;51.894;10.192;2023-11-19T09:27:35;11.60;;;3.70;;
40533;SDS011;26233;51.894;10.192;2023-11-19T09:30:03;8.27;;;3.65;;
40533;SDS011;26233;51.894;10.192;2023-11-19T09:32:32;8.70;;;3.20;;
40533;SDS011;26233;51.894;10.192;2023-11-19T09:34:59;7.53;;;3.20;;
40533;SDS011;26233;51.894;10.192;2023-11-19T09:37:28;8.75;;;3.55;;
40533;SDS011;26233;51.894;10.192;2023-11-19T09:39:56;6.80;;;3.55;;
40533;SDS011;26233;51.894;10.192;2023-11-19T09:42:23;5.75;;;3.20;;
40533;SDS011;26233;51.894;10.192;2023-11-19T09:44:51;5.53;;;2.95;;
40533;SDS011;26233;51.894;10.192;2023-11-19T09:47:21;5.95;;;3.25;;
40533;SDS011;26233;51.894;10.192;2023-11-19T09:49:48;7.22;;;3.95;;
40533;SDS011;26233;51.894;10.192;2023-11-19T09:52:16;6.88;;;3.72;;
40533;SDS011;26233;51.894;10.192;2023-11-19T09:54:43;8.95;;;4.20;;
40533;SDS011;26233;51.894;10.192;2023-11-19T09:57:11;8.48;;;4.00;;
40533;SDS011;26233;51.894;10.192;2023-11-19T09:59:40;8.82;;;4.03;;
40533;SDS011;26233;51.894;10.192;2023-11-19T10:02:08;7.60;;;4.60;;
40533;SDS011;26233;51.894;10.192;2023-11-19T10:04:35;6.03;;;3.80;;
40533;SDS011;26233;51.894;10.192;2023-11-19T10:07:03;6.50;;;3.97;;
40533;SDS011;26233;51.894;10.192;2023-11-19T10:09:31;7.30;;;3.72;;
40533;SDS011;26233;51.894;10.192;2023-11-19T10:11:58;7.63;;;3.97;;
40533;SDS011;26233;51.894;10.192;2023-11-19T10:14:26;8.20;;;3.60;;
40533;SDS011;26233;51.894;10.192;2023-11-19T10:16:54;8.55;;;3.78;;
40533;SDS011;26233;51.894;10.192;2023-11-19T10:19:22;6.97;;;4.65;;
40533;SDS011;26233;51.894;10.192;2023-11-19T10:21:49;9.00;;;4.47;;
40533;SDS011;26233;51.894;10.192;2023-11-19T10:24:16;9.02;;;5.15;;
40533;SDS011;26233;51.894;10.192;2023-11-19T10:26:59;9.52;;;5.40;;
40533;SDS011;26233;51.894;10.192;2023-11-19T10:29:30;7.72;;;4.03;;
40533;SDS011;26233;51.894;10.192;2023-11-19T10:31:57;6.85;;;3.78;;
40533;SDS011;26233;51.894;10.192;2023-11-19T10:34:25;10.10;;;4.15;;
40533;SDS011;26233;51.894;10.192;2023-11-19T10:36:52;5.80;;;3.40;;
40533;SDS011;26233;51.894;10.192;2023-11-19T10:39:19;7.07;;;3.50;;
40533;SDS011;26233;51.894;10.192;2023-11-19T10:41:48;7.88;;;3.60;;
40533;SDS011;26233;51.894;10.192;2023-11-19T10:47:09;7.53;;;3.67;;
40533;SDS011;26233;51.894;10.192;2023-11-19T10:49:38;9.13;;;3.50;;
40533;SDS011;26233;51.894;10.192;2023-11-19T10:52:05;6.32;;;3.40;;
40533;SDS011;26233;51.894;10.192;2023-11-19T10:54:35;5.93;;;3.58;;
40533;SDS011;26233;51.894;10.192;2023-11-19T10:57:03;6.70;;;3.50;;
40533;SDS011;26233;51.894;10.192;2023-11-19T10:59:32;6.38;;;3.42;;
40533;SDS011;26233;51.894;10.192;2023-11-19T11:01:59;7.13;;;3.65;;
40533;SDS011;26233;51.894;10.192;2023-11-19T11:04:33;6.30;;;3.22;;
40533;SDS011;26233;51.894;10.192;2023-11-19T11:07:07;9.35;;;4.22;;
40533;SDS011;26233;51.894;10.192;2023-11-19T11:09:35;7.68;;;4.03;;
40533;SDS011;26233;51.894;10.192;2023-11-19T11:12:03;6.60;;;3.80;;
40533;SDS011;26233;51.894;10.192;2023-11-19T11:14:32;7.93;;;3.45;;
40533;SDS011;26233;51.894;10.192;2023-11-19T11:17:05;5.53;;;3.35;;
40533;SDS011;26233;51.894;10.192;2023-11-19T11:19:35;15.10;;;9.32;;
40533;SDS011;26233;51.894;10.192;2023-11-19T11:22:03;12.07;;;7.05;;
40533;SDS011;26233;51.894;10.192;2023-11-19T11:24:40;11.02;;;5.75;;
40533;SDS011;26233;51.894;10.192;2023-11-19T11:27:44;19.52;;;9.45;;
40533;SDS011;26233;51.894;10.192;2023-11-19T11:30:26;12.05;;;7.30;;
40533;SDS011;26233;51.894;10.192;2023-11-19T11:33:13;11.80;;;6.20;;
40533;SDS011;26233;51.894;10.192;2023-11-19T11:35:55;15.20;;;6.90;;
40533;SDS011;26233;51.894;10.192;2023-11-19T11:38:35;14.98;;;9.70;;
40533;SDS011;26233;51.894;10.192;2023-11-19T11:41:19;19.58;;;13.48;;
40533;SDS011;26233;51.894;10.192;2023-11-19T11:43:48;18.75;;;11.93;;
40533;SDS011;26233;51.894;10.192;2023-11-19T11:49:27;19.77;;;13.52;;
40533;SDS011;26233;51.894;10.192;2023-11-19T11:51:59;15.00;;;9.77;;
40533;SDS011;26233;51.894;10.192;2023-11-19T11:54:28;10.82;;;7.13;;
40533;SDS011;26233;51.894;10.192;2023-11-19T11:57:02;11.95;;;6.50;;
40533;SDS011;26233;51.894;10.192;2023-11-19T11:59:45;7.30;;;4.78;;
40533;SDS011;26233;51.894;10.192;2023-11-19T12:02:14;9.25;;;4.35;;
40533;SDS011;26233;51.894;10.192;2023-11-19T12:04:46;11.65;;;5.20;;
40533;SDS011;26233;51.894;10.192;2023-11-19T12:07:17;7.25;;;4.10;;
40533;SDS011;26233;51.894;10.192;2023-11-19T12:09:48;7.32;;;3.80;;
40533;SDS011;26233;51.894;10.192;2023-11-19T12:12:25;7.65;;;3.58;;
40533;SDS011;26233;51.894;10.192;2023-11-19T12:15:03;7.80;;;3.70;;
40533;SDS011;26233;51.894;10.192;2023-11-19T12:17:40;11.20;;;4.13;;
40533;SDS011;26233;51.894;10.192;2023-11-19T12:20:15;8.98;;;3.78;;
40533;SDS011;26233;51.894;10.192;2023-11-19T12:22:45;8.15;;;3.60;;
40533;SDS011;26233;51.894;10.192;2023-11-19T12:25:14;7.03;;;3.67;;
40533;SDS011;26233;51.894;10.192;2023-11-19T12:27:43;9.60;;;4.07;;
40533;SDS011;26233;51.894;10.192;2023-11-19T12:30:12;8.88;;;3.85;;
40533;SDS011;26233;51.894;10.192;2023-11-19T12:32:44;7.55;;;3.75;;
40533;SDS011;26233;51.894;10.192;2023-11-19T12:35:12;8.07;;;3.85;;
40533;SDS011;26233;51.894;10.192;2023-11-19T12:37:40;7.28;;;3.67;;
40533;SDS011;26233;51.894;10.192;2023-11-19T12:40:12;6.32;;;3.72;;
40533;SDS011;26233;51.894;10.192;2023-11-19T12:42:44;9.07;;;3.60;;
40533;SDS011;26233;51.894;10.192;2023-11-19T12:45:11;7.97;;;3.47;;
40533;SDS011;26233;51.894;10.192;2023-11-19T12:47:39;10.00;;;3.55;;
40533;SDS011;26233;51.894;10.192;2023-11-19T12:50:06;7.53;;;3.53;;
40533;SDS011;26233;51.894;10.192;2023-11-19T12:52:35;8.85;;;3.65;;
40533;SDS011;26233;51.894;10.192;2023-11-19T12:55:03;9.13;;;3.17;;
40533;SDS011;26233;51.894;10.192;2023-11-19T12:57:37;6.40;;;3.40;;
40533;SDS011;26233;51.894;10.192;2023-11-19T13:00:05;7.22;;;2.90;;
40533;SDS011;26233;51.894;10.192;2023-11-19T13:02:45;6.53;;;3.35;;
40533;SDS011;26233;51.894;10.192;2023-11-19T13:05:21;7.30;;;3.20;;
40533;SDS011;26233;51.894;10.192;2023-11-19T13:07:59;6.18;;;3.22;;
40533;SDS011;26233;51.894;10.192;2023-11-19T13:10:27;7.43;;;3.00;;
40533;SDS011;26233;51.894;10.192;2023-11-19T13:13:06;9.52;;;3.35;;
40533;SDS011;26233;51.894;10.192;2023-11-19T13:15:34;8.85;;;3.50;;
40533;SDS011;26233;51.894;10.192;2023-11-19T13:18:02;6.53;;;3.08;;
40533;SDS011;26233;51.894;10.192;2023-11-19T13:20:29;5.93;;;3.03;;
40533;SDS011;26233;51.894;10.192;2023-11-19T13:22:57;7.13;;;3.17;;
40533;SDS011;26233;51.894;10.192;2023-11-19T13:25:25;7.68;;;3.03;;
40533;SDS011;26233;51.894;10.192;2023-11-19T13:27:52;8.50;;;3.05;;
40533;SDS011;26233;51.894;10.192;2023-11-19T13:30:21;6.90;;;3.10;;
40533;SDS011;26233;51.894;10.192;2023-11-19T13:32:49;7.57;;;3.05;;
40533;SDS011;26233;51.894;10.192;2023-11-19T13:35:17;5.95;;;2.78;;
40533;SDS011;26233;51.894;10.192;2023-11-19T13:37:45;6.78;;;3.15;;
40533;SDS011;26233;51.894;10.192;2023-11-19T13:40:12;7.80;;;2.97;;
40533;SDS011;26233;51.894;10.192;2023-11-19T13:42:40;7.93;;;2.90;;
40533;SDS011;26233;51.894;10.192;2023-11-19T13:45:08;6.30;;;2.92;;
40533;SDS011;26233;51.894;10.192;2023-11-19T13:47:39;6.22;;;2.75;;
40533;SDS011;26233;51.894;10.192;2023-11-19T13:50:08;6.88;;;2.40;;
40533;SDS011;26233;51.894;10.192;2023-11-19T13:52:36;7.28;;;3.08;;
40533;SDS011;26233;51.894;10.192;2023-11-19T13:55:05;7.00;;;2.58;;
40533;SDS011;26233;51.894;10.192;2023-11-19T13:57:34;5.90;;;2.47;;
40533;SDS011;26233;51.894;10.192;2023-11-19T14:00:01;7.32;;;2.80;;
40533;SDS011;26233;51.894;10.192;2023-11-19T14:02:31;5.57;;;2.13;;
40533;SDS011;26233;51.894;10.192;2023-11-19T14:04:59;8.70;;;2.72;;
40533;SDS011;26233;51.894;10.192;2023-11-19T14:07:27;6.55;;;2.85;;
40533;SDS011;26233;51.894;10.192;2023-11-19T14:09:54;7.57;;;2.83;;
40533;SDS011;26233;51.894;10.192;2023-11-19T14:12:21;6.32;;;2.70;;
40533;SDS011;26233;51.894;10.192;2023-11-19T14:14:48;8.70;;;2.90;;
40533;SDS011;26233;51.894;10.192;2023-11-19T14:17:15;8.38;;;3.05;;
40533;SDS011;26233;51.894;10.192;2023-11-19T14:19:44;7.75;;;3.33;;
40533;SDS011;26233;51.894;10.192;2023-11-19T14:22:12;7.53;;;2.83;;
40533;SDS011;26233;51.894;10.192;2023-11-19T14:24:39;5.63;;;2.22;;
40533;SDS011;26233;51.894;10.192;2023-11-19T14:27:08;6.47;;;2.70;;
40533;SDS011;26233;51.894;10.192;2023-11-19T14:29:35;6.28;;;2.20;;
40533;SDS011;26233;51.894;10.192;2023-11-19T14:32:03;5.13;;;2.28;;
40533;SDS011;26233;51.894;10.192;2023-11-19T14:34:30;4.65;;;2.40;;
40533;SDS011;26233;51.894;10.192;2023-11-19T14:36:58;7.68;;;2.83;;
40533;SDS011;26233;51.894;10.192;2023-11-19T14:39:27;7.97;;;2.58;;
40533;SDS011;26233;51.894;10.192;2023-11-19T14:41:56;5.28;;;2.47;;
40533;SDS011;26233;51.894;10.192;2023-11-19T14:44:26;8.07;;;2.65;;
40533;SDS011;26233;51.894;10.192;2023-11-19T14:46:54;7.05;;;2.80;;